Time;durP1;ratioP1;P1;durP2;ratioP2;P2;SDS_P1;SDS_P2;PMS_P1;PMS_P2;Temp;Humidity;BMP_temperature;BMP_pressure;BME280_temperature;BME280_humidity;BME280_pressure;Samples;Min_cycle;Max_cycle;Signal;HPM_P1;HPM_P2
2023/05/05 04:06:42;;;;;;;2.53;2.33;;;13.30;99.90;;;;;;4939729;29;20536;-69
2023/05/05 04:09:08;;;;;;;3.03;2.77;;;13.20;99.90;;;;;;4943584;29;20545;-69
2023/05/05 04:11:33;;;;;;;2.53;2.33;;;13.30;99.90;;;;;;4944491;29;20223;-69
2023/05/05 04:13:59;;;;;;;2.90;2.70;;;13.30;99.90;;;;;;4943767;29;20226;-68
2023/05/05 04:16:24;;;;;;;2.60;2.33;;;13.30;99.90;;;;;;4941849;29;20190;-69
2023/05/05 04:18:50;;;;;;;2.93;2.77;;;13.30;99.90;;;;;;4940698;29;20181;-69
2023/05/05 04:21:15;;;;;;;2.90;2.70;;;13.40;99.90;;;;;;4955297;29;20194;-69
2023/05/05 04:23:41;;;;;;;3.03;2.80;;;13.40;99.90;;;;;;4940433;29;20606;-68
2023/05/05 04:26:07;;;;;;;2.30;2.10;;;13.40;99.90;;;;;;4938898;29;20564;-68
2023/05/05 04:28:32;;;;;;;4.77;3.10;;;13.50;99.90;;;;;;4937264;29;20210;-68
2023/05/05 04:30:59;;;;;;;2.73;2.37;;;13.50;99.90;;;;;;4937178;29;20529;-69
2023/05/05 04:33:25;;;;;;;3.93;2.40;;;13.50;99.90;;;;;;4936393;29;20171;-70
2023/05/05 04:35:51;;;;;;;2.60;2.40;;;13.50;99.90;;;;;;4936355;29;20778;-68
2023/05/05 04:38:18;;;;;;;2.37;2.13;;;13.60;99.90;;;;;;4937053;29;20194;-69
2023/05/05 04:40:43;;;;;;;2.60;2.40;;;13.60;99.90;;;;;;4920084;29;20594;-69
2023/05/05 04:43:09;;;;;;;3.37;2.67;;;13.60;99.90;;;;;;4936826;29;20403;-69
2023/05/05 04:45:35;;;;;;;2.73;2.53;;;13.60;99.90;;;;;;4936740;29;20195;-68
2023/05/05 04:48:00;;;;;;;2.27;2.07;;;13.60;99.90;;;;;;4936681;29;20206;-69
2023/05/05 04:50:26;;;;;;;3.10;2.90;;;13.70;99.90;;;;;;4936735;29;20173;-68
2023/05/05 04:52:52;;;;;;;2.80;2.57;;;13.80;99.90;;;;;;4936788;29;20408;-69
2023/05/05 04:55:17;;;;;;;3.00;2.80;;;14.10;99.90;;;;;;4935846;29;20188;-70
2023/05/05 04:57:43;;;;;;;4.50;3.00;;;14.40;99.90;;;;;;4936221;29;20191;-69
2023/05/05 05:00:09;;;;;;;3.33;3.03;;;14.50;99.90;;;;;;4936506;29;20267;-68
2023/05/05 05:02:36;;;;;;;3.67;3.13;;;14.50;99.90;;;;;;4936108;29;20208;-70
2023/05/05 05:05:02;;;;;;;3.03;2.83;;;14.50;99.90;;;;;;4936086;29;20482;-69
2023/05/05 05:07:27;;;;;;;3.17;2.97;;;14.60;99.90;;;;;;4936232;29;20807;-69
2023/05/05 05:09:53;;;;;;;3.50;3.20;;;14.50;99.90;;;;;;4936133;29;20209;-69
2023/05/05 05:12:18;;;;;;;3.80;2.77;;;14.50;99.90;;;;;;4936505;29;20169;-68
2023/05/05 05:14:44;;;;;;;3.77;3.50;;;14.60;99.90;;;;;;4935983;29;20663;-69
2023/05/05 05:17:10;;;;;;;3.30;3.00;;;14.70;99.90;;;;;;4936118;29;20536;-68
2023/05/05 05:19:35;;;;;;;3.60;3.27;;;14.80;99.90;;;;;;4936116;29;20173;-72
2023/05/05 05:22:01;;;;;;;3.70;3.40;;;14.90;99.90;;;;;;4936366;29;20569;-68
2023/05/05 05:24:26;;;;;;;3.43;2.93;;;15.10;99.90;;;;;;4935752;29;20540;-70
2023/05/05 05:26:52;;;;;;;3.97;3.07;;;15.20;99.90;;;;;;4936258;29;20202;-68
2023/05/05 05:29:19;;;;;;;3.20;3.00;;;15.50;99.90;;;;;;4936184;29;20221;-70
2023/05/05 05:31:44;;;;;;;3.00;2.70;;;15.80;99.90;;;;;;4936045;29;20288;-70
2023/05/05 05:34:10;;;;;;;4.10;3.37;;;16.20;99.90;;;;;;4935783;29;20430;-73
2023/05/05 05:36:35;;;;;;;3.27;2.97;;;16.50;99.90;;;;;;4934696;29;20232;-70
2023/05/05 05:39:01;;;;;;;3.77;3.40;;;16.70;99.90;;;;;;4936111;29;20175;-69
2023/05/05 05:41:27;;;;;;;3.10;2.90;;;16.90;99.90;;;;;;4936243;29;20179;-71
2023/05/05 05:43:52;;;;;;;5.23;3.87;;;17.00;99.90;;;;;;4934414;29;20185;-69
2023/05/05 05:46:18;;;;;;;3.47;3.20;;;17.10;99.90;;;;;;4935876;29;20174;-69
2023/05/05 05:48:43;;;;;;;3.57;3.27;;;17.30;99.90;;;;;;4935923;29;20308;-69
2023/05/05 05:51:09;;;;;;;3.27;2.90;;;17.50;99.90;;;;;;4935780;29;20303;-71
2023/05/05 05:53:35;;;;;;;2.97;2.77;;;17.70;99.90;;;;;;4935625;29;20177;-69
2023/05/05 05:56:00;;;;;;;3.73;3.40;;;17.70;99.90;;;;;;4935990;29;20573;-69
2023/05/05 05:58:26;;;;;;;2.77;2.23;;;17.80;99.90;;;;;;4935580;29;20260;-69
2023/05/05 06:00:51;;;;;;;3.23;2.87;;;17.80;99.90;;;;;;4934425;29;20174;-71
2023/05/05 06:03:17;;;;;;;2.53;2.40;;;17.80;99.90;;;;;;4935334;29;20173;-72
2023/05/05 06:05:45;;;;;;;4.07;3.67;;;17.80;99.90;;;;;;4939639;29;20207;-69
2023/05/05 06:08:10;;;;;;;2.70;2.50;;;18.00;99.90;;;;;;4966722;28;20219;-69
2023/05/05 06:10:36;;;;;;;2.97;2.43;;;18.30;99.90;;;;;;4974832;28;20427;-68
2023/05/05 06:13:01;;;;;;;2.87;2.67;;;18.50;99.90;;;;;;4974442;28;20195;-71
2023/05/05 06:15:27;;;;;;;3.37;3.07;;;18.80;99.90;;;;;;4976127;28;20674;-69
2023/05/05 06:17:53;;;;;;;4.17;3.87;;;18.90;99.90;;;;;;4910725;29;20531;-72
2023/05/05 06:20:18;;;;;;;5.10;2.40;;;19.10;99.90;;;;;;4888348;29;20653;-70
2023/05/05 06:22:44;;;;;;;2.70;2.50;;;19.10;99.90;;;;;;4899202;29;20199;-70
2023/05/05 06:25:10;;;;;;;2.40;2.20;;;19.20;99.90;;;;;;4882690;29;20216;-71
2023/05/05 06:30:11;;;;;;;4.57;3.27;;;19.30;99.90;;;;;;5151041;27;20289;-71
2023/05/05 06:32:36;;;;;;;2.87;2.50;;;19.30;99.90;;;;;;5145984;27;20435;-73
2023/05/05 06:35:02;;;;;;;2.33;2.13;;;19.30;99.90;;;;;;5119090;28;20800;-73
2023/05/05 06:37:28;;;;;;;2.53;2.33;;;19.40;99.90;;;;;;5128926;28;20196;-73
2023/05/05 06:39:53;;;;;;;2.60;2.40;;;19.30;99.90;;;;;;5107217;28;20199;-72
2023/05/05 06:42:19;;;;;;;2.30;2.20;;;19.30;99.90;;;;;;5057464;28;20235;-70
2023/05/05 06:44:44;;;;;;;2.90;2.70;;;19.30;99.90;;;;;;5083228;28;20294;-73
2023/05/05 06:47:10;;;;;;;2.23;2.03;;;19.40;99.90;;;;;;5033591;28;20193;-68
2023/05/05 06:49:36;;;;;;;2.83;2.60;;;19.50;99.90;;;;;;4933868;28;20221;-70
2023/05/05 06:54:40;;;;;;;2.30;2.10;;;19.50;99.90;;;;;;5184321;27;20510;-69
2023/05/05 06:57:05;;;;;;;4.20;2.90;;;19.90;99.90;;;;;;5122888;27;1722674;-69
2023/05/05 06:59:31;;;;;;;2.17;2.07;;;20.20;99.90;;;;;;5111003;28;20183;-69
2023/05/05 07:01:58;;;;;;;2.93;2.73;;;20.50;99.90;;;;;;5110972;28;20520;-67
2023/05/05 07:04:23;;;;;;;2.13;2.03;;;20.80;99.90;;;;;;5110782;28;20199;-70
2023/05/05 07:06:49;;;;;;;2.20;1.80;;;21.10;99.90;;;;;;5111079;28;20881;-71
2023/05/05 07:09:15;;;;;;;3.30;2.73;;;21.30;99.90;;;;;;5111018;28;20250;-68
2023/05/05 07:11:41;;;;;;;2.63;2.43;;;21.60;99.60;;;;;;5110558;28;20167;-69
2023/05/05 07:14:07;;;;;;;2.23;1.77;;;21.70;99.30;;;;;;5091938;28;20463;-71
2023/05/05 07:16:35;;;;;;;2.60;2.40;;;21.80;99.30;;;;;;5110893;28;20260;-71
2023/05/05 07:19:04;;;;;;;3.07;2.87;;;21.90;99.00;;;;;;5110712;28;20169;-70
2023/05/05 07:21:30;;;;;;;2.00;1.90;;;21.90;98.80;;;;;;5110564;28;20401;-70
2023/05/05 07:23:55;;;;;;;2.40;2.20;;;22.00;99.10;;;;;;5110340;28;20412;-72
2023/05/05 07:26:21;;;;;;;2.60;2.40;;;22.20;98.70;;;;;;5107674;28;20474;-70
2023/05/05 07:28:47;;;;;;;1.90;1.80;;;22.40;98.70;;;;;;5090216;28;20680;-71
2023/05/05 07:31:12;;;;;;;2.10;2.00;;;22.40;98.40;;;;;;5090327;28;20695;-64
2023/05/05 07:33:38;;;;;;;1.70;1.53;;;22.50;98.30;;;;;;5089896;28;20230;-67
2023/05/05 07:36:04;;;;;;;2.17;1.97;;;22.50;97.90;;;;;;5090056;28;20292;-64
2023/05/05 07:38:29;;;;;;;2.60;2.40;;;22.60;98.20;;;;;;5089814;28;20251;-66
2023/05/05 07:40:55;;;;;;;1.73;1.63;;;22.70;98.30;;;;;;5100188;28;20770;-64
2023/05/05 07:43:21;;;;;;;2.73;2.53;;;22.80;98.30;;;;;;5085400;28;20175;-64
2023/05/05 07:45:46;;;;;;;2.27;2.00;;;22.80;98.30;;;;;;5094094;28;20199;-66
2023/05/05 07:48:12;;;;;;;3.83;2.30;;;22.80;98.50;;;;;;5109413;28;20671;-65
2023/05/05 07:50:37;;;;;;;2.33;2.13;;;22.80;98.60;;;;;;5108775;28;20260;-65
2023/05/05 07:53:03;;;;;;;2.00;1.90;;;22.70;98.70;;;;;;5108712;28;20199;-65
2023/05/05 07:55:29;;;;;;;1.23;1.20;;;22.80;98.80;;;;;;5108954;28;20659;-66
2023/05/05 07:57:54;;;;;;;7.57;4.17;;;22.80;98.60;;;;;;5107868;28;20516;-67
2023/05/05 08:00:20;;;;;;;3.03;2.80;;;22.80;98.60;;;;;;5108161;28;20172;-65
2023/05/05 08:02:46;;;;;;;1.90;1.80;;;22.80;97.90;;;;;;5107898;28;20297;-65
2023/05/05 08:05:12;;;;;;;2.03;1.93;;;22.80;97.70;;;;;;5098388;28;20188;-65
2023/05/05 08:07:39;;;;;;;2.33;1.90;;;22.70;97.90;;;;;;5094230;28;20431;-64
2023/05/05 08:10:07;;;;;;;2.13;2.03;;;22.50;98.20;;;;;;5092057;28;20172;-67
2023/05/05 08:12:33;;;;;;;1.70;1.60;;;22.30;98.30;;;;;;5075954;28;20467;-66
2023/05/05 08:14:58;;;;;;;1.60;1.50;;;22.10;98.30;;;;;;5075391;28;20435;-65
2023/05/05 08:17:25;;;;;;;1.20;1.17;;;21.90;99.50;;;;;;5057812;28;20165;-66
2023/05/05 08:19:52;;;;;;;1.10;1.10;;;21.70;99.60;;;;;;5075944;28;20258;-66
2023/05/05 08:22:17;;;;;;;1.70;1.60;;;21.50;99.70;;;;;;5075892;28;20402;-66
2023/05/05 08:24:43;;;;;;;1.30;1.20;;;21.30;99.90;;;;;;5069629;28;20982;-64
2023/05/05 08:27:08;;;;;;;2.13;1.90;;;21.10;99.90;;;;;;5095962;28;20622;-66
2023/05/05 08:29:34;;;;;;;3.60;1.30;;;21.00;99.90;;;;;;5096084;28;20179;-65
2023/05/05 08:32:00;;;;;;;1.73;1.63;;;20.90;99.90;;;;;;5095863;28;20614;-65
2023/05/05 08:34:25;;;;;;;1.93;1.83;;;20.60;99.90;;;;;;5095281;28;20285;-64
2023/05/05 08:36:51;;;;;;;1.40;1.30;;;20.40;99.90;;;;;;5095879;28;20183;-66
2023/05/05 08:39:16;;;;;;;1.63;1.53;;;20.30;99.90;;;;;;5095232;28;20172;-66
2023/05/05 08:41:42;;;;;;;2.33;2.13;;;20.10;99.90;;;;;;5095574;28;20301;-66
2023/05/05 08:44:08;;;;;;;2.00;1.57;;;20.00;99.90;;;;;;5095213;28;20220;-64
2023/05/05 08:46:35;;;;;;;2.47;2.00;;;20.00;99.90;;;;;;5095751;28;20271;-64
2023/05/05 08:49:02;;;;;;;1.67;1.57;;;19.90;99.90;;;;;;5095544;28;20180;-66
2023/05/05 08:51:37;;;;;;;2.50;2.30;;;19.80;99.90;;;;;;5095508;28;20513;-64
2023/05/05 08:54:05;;;;;;;2.00;1.90;;;19.80;99.90;;;;;;5083338;28;20466;-65
2023/05/05 08:56:33;;;;;;;2.00;1.70;;;19.70;99.90;;;;;;5075157;28;20827;-64
2023/05/05 08:59:00;;;;;;;1.80;1.70;;;19.70;99.90;;;;;;5064275;28;20424;-65
2023/05/05 09:01:26;;;;;;;2.33;2.13;;;19.80;99.90;;;;;;5054791;28;20415;-64
2023/05/05 09:03:52;;;;;;;2.97;2.70;;;19.90;99.90;;;;;;5054503;28;20799;-65
2023/05/05 09:06:21;;;;;;;1.97;1.87;;;20.00;99.90;;;;;;5055006;28;20447;-65
2023/05/05 09:08:48;;;;;;;1.37;1.13;;;20.20;99.90;;;;;;5056966;28;20193;-65
2023/05/05 09:11:13;;;;;;;2.20;2.10;;;20.30;99.90;;;;;;5074870;28;20423;-70
2023/05/05 09:13:40;;;;;;;1.43;1.20;;;20.50;99.90;;;;;;5074580;28;20459;-72
2023/05/05 09:16:06;;;;;;;1.20;1.10;;;20.60;99.90;;;;;;5073719;28;20650;-69
2023/05/05 09:18:33;;;;;;;1.50;1.40;;;20.80;99.90;;;;;;5074791;28;20428;-69
2023/05/05 09:20:58;;;;;;;1.83;1.73;;;20.90;99.90;;;;;;5074744;28;20413;-69
2023/05/05 09:23:24;;;;;;;1.33;1.30;;;20.90;99.90;;;;;;5073653;28;20900;-69
2023/05/05 09:26:04;;;;;;;1.40;1.30;;;21.00;99.90;;;;;;5074619;28;20199;-69
2023/05/05 09:28:30;;;;;;;1.83;1.37;;;21.10;99.90;;;;;;5074472;28;20246;-69
2023/05/05 09:31:11;;;;;;;1.50;1.40;;;21.20;99.90;;;;;;5074527;28;20831;-69
2023/05/05 09:33:38;;;;;;;1.13;1.03;;;21.40;99.90;;;;;;5073939;28;20462;-69
2023/05/05 09:36:04;;;;;;;1.50;1.40;;;21.50;99.90;;;;;;5048585;28;20769;-69
2023/05/05 09:38:30;;;;;;;1.50;1.40;;;21.50;99.90;;;;;;5054281;28;20427;-70
2023/05/05 09:40:55;;;;;;;1.40;1.40;;;21.60;99.90;;;;;;5054378;28;20409;-69
2023/05/05 09:43:22;;;;;;;1.40;1.30;;;21.60;99.90;;;;;;5060469;28;20641;-69
2023/05/05 09:45:48;;;;;;;1.63;1.50;;;21.70;99.90;;;;;;5073881;28;20542;-70
2023/05/05 09:48:31;;;;;;;1.37;1.17;;;21.80;99.90;;;;;;5074183;28;20828;-69
2023/05/05 09:50:57;;;;;;;1.93;1.00;;;21.90;99.90;;;;;;5074063;28;20419;-69
2023/05/05 09:53:24;;;;;;;1.13;1.10;;;22.10;99.90;;;;;;5073755;28;20553;-68
2023/05/05 09:55:56;;;;;;;1.47;1.30;;;22.20;99.90;;;;;;5074063;28;20493;-69
2023/05/05 09:58:28;;;;;;;2.00;1.90;;;22.30;99.90;;;;;;5078294;28;20511;-69
2023/05/05 10:00:55;;;;;;;0.93;0.93;;;22.50;99.90;;;;;;5094230;28;20402;-69
2023/05/05 10:03:22;;;;;;;1.60;1.50;;;22.70;99.70;;;;;;5093901;28;20411;-67
2023/05/05 10:05:59;;;;;;;1.13;1.13;;;22.90;99.30;;;;;;5094062;28;20430;-70
2023/05/05 10:08:32;;;;;;;1.03;1.03;;;23.10;98.20;;;;;;5094144;28;20802;-70
2023/05/05 10:10:59;;;;;;;2.07;1.97;;;24.00;97.60;;;;;;5094103;28;20392;-70
2023/05/05 10:13:25;;;;;;;1.20;1.20;;;24.60;97.10;;;;;;5074605;28;20437;-70
2023/05/05 10:15:54;;;;;;;1.13;1.03;;;25.10;96.50;;;;;;5059111;28;20449;-69
2023/05/05 10:18:20;;;;;;;1.43;1.33;;;25.30;95.80;;;;;;5093863;28;20975;-69
2023/05/05 10:20:54;;;;;;;1.23;1.17;;;25.30;95.40;;;;;;5100688;28;20395;-68
2023/05/05 10:23:22;;;;;;;1.43;1.30;;;25.20;95.50;;;;;;5092152;28;20443;-69
2023/05/05 10:26:01;;;;;;;1.33;1.23;;;25.20;95.60;;;;;;5108422;28;20440;-68
2023/05/05 10:28:41;;;;;;;1.93;1.77;;;25.10;94.50;;;;;;5100429;28;20453;-67
2023/05/05 10:31:19;;;;;;;2.30;2.00;;;25.00;93.70;;;;;;5113975;28;20718;-68
2023/05/05 10:33:55;;;;;;;1.10;1.00;;;24.80;93.40;;;;;;5113565;28;20542;-68
2023/05/05 10:36:22;;;;;;;1.00;1.00;;;24.60;93.60;;;;;;5096055;28;20467;-68
2023/05/05 10:38:50;;;;;;;1.60;1.50;;;24.50;94.10;;;;;;5113823;28;20373;-69
2023/05/05 10:41:18;;;;;;;1.30;1.20;;;24.50;95.00;;;;;;5107923;28;20746;-68
2023/05/05 10:43:45;;;;;;;1.33;1.23;;;24.50;94.70;;;;;;5093155;28;20394;-69
2023/05/05 10:46:11;;;;;;;1.83;1.47;;;24.40;94.20;;;;;;5093516;28;20820;-69
2023/05/05 10:49:00;;;;;;;1.57;1.47;;;24.30;94.40;;;;;;5093810;28;20705;-70
2023/05/05 10:51:43;;;;;;;1.47;1.37;;;24.40;94.30;;;;;;5102108;28;20417;-68
2023/05/05 10:54:42;;;;;;;1.47;1.37;;;24.50;94.00;;;;;;5096733;28;20523;-67
2023/05/05 10:57:10;;;;;;;1.87;1.77;;;24.60;93.90;;;;;;5085632;28;20721;-68
2023/05/05 10:59:36;;;;;;;1.97;1.50;;;24.40;95.40;;;;;;5114044;28;20518;-67
2023/05/05 11:02:23;;;;;;;1.50;1.40;;;24.20;95.40;;;;;;5097323;28;20976;-68
2023/05/05 11:05:08;;;;;;;1.60;1.50;;;24.10;95.50;;;;;;5093104;28;20203;-69
2023/05/05 11:07:35;;;;;;;1.13;1.10;;;23.80;95.00;;;;;;5094506;28;20425;-67
2023/05/05 11:10:03;;;;;;;1.40;1.30;;;23.60;96.10;;;;;;5094806;28;20772;-68
2023/05/05 11:12:32;;;;;;;4.53;1.63;;;23.30;96.40;;;;;;5092946;28;20454;-68
2023/05/05 11:15:36;;;;;;;1.70;1.60;;;23.10;96.50;;;;;;5097221;28;20453;-67
2023/05/05 11:18:03;;;;;;;1.57;1.47;;;22.90;96.80;;;;;;5073049;28;20853;-67
2023/05/05 11:20:35;;;;;;;1.80;1.70;;;22.60;96.30;;;;;;5073069;28;20411;-67
2023/05/05 11:23:01;;;;;;;1.30;1.20;;;22.40;97.40;;;;;;5072682;28;20396;-66
2023/05/05 11:25:36;;;;;;;1.60;1.50;;;22.10;99.10;;;;;;5072686;28;20529;-68
2023/05/05 11:28:06;;;;;;;1.60;1.50;;;21.90;99.90;;;;;;5076968;28;20179;-67
2023/05/05 11:30:33;;;;;;;1.60;1.50;;;21.70;99.90;;;;;;5093151;28;20415;-67
2023/05/05 11:33:29;;;;;;;1.40;1.30;;;21.60;99.90;;;;;;5092787;28;20416;-67
2023/05/05 11:35:58;;;;;;;1.40;1.30;;;21.50;99.90;;;;;;5093115;28;20739;-69
2023/05/05 11:38:27;;;;;;;2.40;2.30;;;21.50;99.90;;;;;;5092851;28;20384;-69
2023/05/05 11:41:04;;;;;;;1.70;1.70;;;21.60;99.90;;;;;;5095788;28;20394;-66
2023/05/05 11:43:29;;;;;;;1.63;1.53;;;21.70;99.90;;;;;;5076647;28;20471;-67
2023/05/05 11:46:15;;;;;;;1.40;1.30;;;21.80;99.90;;;;;;5076392;28;20423;-68
2023/05/05 11:48:48;;;;;;;1.70;1.60;;;21.90;99.70;;;;;;5076394;28;20184;-67
2023/05/05 11:51:17;;;;;;;1.47;1.30;;;22.10;99.80;;;;;;5087864;28;20755;-68
2023/05/05 11:53:47;;;;;;;1.63;1.53;;;22.30;99.30;;;;;;5095506;28;20433;-68
2023/05/05 11:56:23;;;;;;;1.40;1.30;;;22.60;99.00;;;;;;5096508;28;20952;-68
2023/05/05 11:59:09;;;;;;;1.77;1.67;;;22.90;98.40;;;;;;5096340;28;20426;-68
2023/05/05 12:01:40;;;;;;;1.30;1.23;;;23.10;99.20;;;;;;5096536;28;20399;-68
2023/05/05 12:04:07;;;;;;;1.67;1.57;;;23.40;97.90;;;;;;5095747;28;20422;-68
2023/05/05 12:06:32;;;;;;;1.70;1.63;;;23.60;97.90;;;;;;5078838;28;20757;-69
2023/05/05 12:08:59;;;;;;;1.53;1.43;;;23.80;97.50;;;;;;5077103;28;20394;-68
2023/05/05 12:11:25;;;;;;;1.40;1.30;;;24.00;95.50;;;;;;5076125;28;20623;-68
2023/05/05 12:14:06;;;;;;;1.13;1.13;;;24.10;95.50;;;;;;5075245;28;20450;-68
2023/05/05 12:16:32;;;;;;;1.93;1.70;;;24.20;96.00;;;;;;5058156;28;20176;-68
2023/05/05 12:19:04;;;;;;;1.03;1.00;;;24.30;95.60;;;;;;5075830;28;20408;-68
2023/05/05 12:21:31;;;;;;;1.20;1.10;;;24.40;96.00;;;;;;5091793;28;20326;-70
2023/05/05 12:23:57;;;;;;;1.27;1.17;;;24.50;95.20;;;;;;5093565;28;20404;-69
2023/05/05 12:26:27;;;;;;;1.40;1.30;;;24.60;95.70;;;;;;5093769;28;20504;-68
2023/05/05 12:28:54;;;;;;;1.53;1.43;;;24.60;95.50;;;;;;5093750;28;20404;-71
2023/05/05 12:31:20;;;;;;;1.90;1.77;;;24.70;95.10;;;;;;5094208;28;20436;-69
2023/05/05 12:33:47;;;;;;;1.00;1.00;;;24.80;95.20;;;;;;5094647;28;20463;-68
2023/05/05 12:36:14;;;;;;;1.30;1.20;;;24.80;94.30;;;;;;5075491;28;20776;-69
2023/05/05 12:38:40;;;;;;;1.33;1.23;;;24.90;93.60;;;;;;5073451;28;20367;-68
2023/05/05 12:41:06;;;;;;;1.40;1.30;;;24.90;92.60;;;;;;5073401;28;20402;-68
2023/05/05 12:43:34;;;;;;;1.50;1.40;;;24.90;93.30;;;;;;5073093;28;20409;-69
2023/05/05 12:46:07;;;;;;;1.20;1.20;;;24.90;93.50;;;;;;5055740;28;20196;-70
2023/05/05 12:48:36;;;;;;;2.90;1.50;;;24.80;94.10;;;;;;5073306;28;20481;-70
2023/05/05 12:51:22;;;;;;;1.27;1.20;;;24.60;93.50;;;;;;5092401;28;20415;-71
2023/05/05 12:54:00;;;;;;;1.43;1.33;;;24.30;93.60;;;;;;5095063;28;20421;-69
2023/05/05 12:56:36;;;;;;;1.37;1.27;;;24.20;93.90;;;;;;5095509;28;20426;-68
2023/05/05 12:59:08;;;;;;;1.60;1.50;;;24.00;94.20;;;;;;5095180;28;20768;-68
2023/05/05 13:01:50;;;;;;;1.37;1.07;;;24.10;94.60;;;;;;5061056;28;20442;-69
2023/05/05 13:04:18;;;;;;;1.03;1.03;;;24.10;94.10;;;;;;5094647;28;20438;-69
2023/05/05 13:06:45;;;;;;;1.40;1.30;;;24.10;93.90;;;;;;5095054;28;20601;-69
2023/05/05 13:09:32;;;;;;;2.20;1.20;;;24.00;93.70;;;;;;5094864;28;20505;-68
2023/05/05 13:12:01;;;;;;;1.30;1.30;;;24.00;93.90;;;;;;5094657;28;20406;-68
2023/05/05 13:14:27;;;;;;;1.17;1.17;;;24.00;93.90;;;;;;5094475;28;20481;-68
2023/05/05 13:16:53;;;;;;;1.93;1.30;;;24.10;93.80;;;;;;5095116;28;20935;-68
2023/05/05 13:19:18;;;;;;;1.47;1.37;;;24.10;94.00;;;;;;5059714;28;20196;-68
2023/05/05 13:21:44;;;;;;;1.70;1.60;;;24.10;94.50;;;;;;5095049;28;20641;-69
2023/05/05 13:24:09;;;;;;;1.43;1.33;;;24.20;93.80;;;;;;5094114;28;20199;-68
2023/05/05 13:26:35;;;;;;;1.53;1.43;;;24.10;94.40;;;;;;5094723;28;20168;-68
2023/05/05 13:29:00;;;;;;;1.90;1.33;;;24.10;94.20;;;;;;5094962;28;20180;-68
2023/05/05 13:31:26;;;;;;;1.33;1.23;;;24.10;94.30;;;;;;5094712;28;20172;-68
2023/05/05 13:33:52;;;;;;;1.53;1.43;;;24.10;94.20;;;;;;5094158;28;20725;-69
2023/05/05 13:36:17;;;;;;;1.80;1.70;;;24.20;94.20;;;;;;5094782;28;20187;-69
2023/05/05 13:38:43;;;;;;;2.90;1.80;;;24.20;94.40;;;;;;5059757;28;20177;-69
2023/05/05 13:41:08;;;;;;;2.33;1.57;;;24.10;94.00;;;;;;5074142;28;20525;-69
2023/05/05 13:43:34;;;;;;;1.20;1.20;;;24.00;94.10;;;;;;5073887;28;20175;-68
2023/05/05 13:46:00;;;;;;;1.10;1.10;;;24.00;93.80;;;;;;5074146;28;20189;-68
2023/05/05 13:48:26;;;;;;;1.10;1.00;;;24.00;93.10;;;;;;5079595;28;20191;-67
2023/05/05 13:50:51;;;;;;;2.57;1.20;;;23.90;92.50;;;;;;5076572;28;20183;-68
2023/05/05 13:53:17;;;;;;;1.33;1.23;;;23.80;92.80;;;;;;5093978;28;20195;-69
2023/05/05 13:55:42;;;;;;;1.13;1.00;;;23.80;92.70;;;;;;5094107;28;20538;-69
2023/05/05 13:58:09;;;;;;;1.40;1.30;;;23.70;92.70;;;;;;5095707;28;20192;-68
2023/05/05 14:00:35;;;;;;;1.37;1.30;;;23.70;92.70;;;;;;5114663;28;20187;-68
2023/05/05 14:03:01;;;;;;;1.00;1.00;;;23.50;92.50;;;;;;5137363;27;20752;-68
2023/05/05 14:05:26;;;;;;;2.00;1.20;;;23.50;92.00;;;;;;5155234;27;20298;-68
2023/05/05 14:07:53;;;;;;;1.00;1.00;;;23.50;92.10;;;;;;5137002;27;20420;-69
2023/05/05 14:10:19;;;;;;;1.50;1.40;;;23.50;92.00;;;;;;5081408;28;20191;-69
2023/05/05 14:12:45;;;;;;;1.20;1.20;;;23.50;92.50;;;;;;5073544;28;20427;-69
2023/05/05 14:15:11;;;;;;;1.30;1.20;;;23.30;92.70;;;;;;5055271;28;20844;-68
2023/05/05 14:17:38;;;;;;;1.10;1.10;;;23.20;93.40;;;;;;5070376;28;20423;-67
2023/05/05 14:20:04;;;;;;;1.07;1.07;;;23.10;93.50;;;;;;5053644;28;20407;-67
2023/05/05 14:22:30;;;;;;;1.30;1.20;;;23.00;93.60;;;;;;5053689;28;20455;-68
2023/05/05 14:24:56;;;;;;;0.90;0.90;;;22.90;93.50;;;;;;5053086;28;20478;-69
2023/05/05 14:27:22;;;;;;;1.53;1.43;;;22.90;92.90;;;;;;5053689;28;20237;-67
2023/05/05 14:29:47;;;;;;;0.90;0.90;;;22.90;93.10;;;;;;5053462;28;20885;-68
2023/05/05 14:32:13;;;;;;;0.93;0.93;;;22.90;93.40;;;;;;5053260;28;20165;-68
2023/05/05 14:34:38;;;;;;;0.90;0.90;;;22.80;93.50;;;;;;5034995;28;20209;-68
2023/05/05 14:37:04;;;;;;;1.30;1.10;;;22.80;93.50;;;;;;5053407;28;20197;-68
2023/05/05 14:39:30;;;;;;;0.80;0.80;;;22.80;93.60;;;;;;5035525;28;20542;-68
2023/05/05 14:41:55;;;;;;;0.90;0.90;;;22.80;92.60;;;;;;5053108;28;20166;-67
2023/05/05 14:44:21;;;;;;;0.97;0.97;;;22.80;92.60;;;;;;5052669;28;20204;-67
2023/05/05 14:46:46;;;;;;;1.27;1.17;;;22.70;92.60;;;;;;5053671;28;20634;-68
2023/05/05 14:49:12;;;;;;;0.80;0.80;;;22.70;92.60;;;;;;5073458;28;20175;-69
2023/05/05 14:51:38;;;;;;;1.23;1.10;;;22.60;92.40;;;;;;5073174;28;20254;-68
2023/05/05 14:54:03;;;;;;;1.43;1.33;;;22.60;92.70;;;;;;5072612;28;20239;-69
2023/05/05 14:56:29;;;;;;;1.53;1.43;;;22.50;93.90;;;;;;5072992;28;20239;-68
2023/05/05 14:58:54;;;;;;;1.47;1.37;;;22.40;94.30;;;;;;5060334;28;20177;-68
2023/05/05 15:01:20;;;;;;;1.17;1.17;;;22.30;94.90;;;;;;5053134;28;20227;-68
2023/05/05 15:03:46;;;;;;;1.67;1.57;;;22.20;95.50;;;;;;5052252;28;20197;-68
2023/05/05 15:06:11;;;;;;;1.77;1.67;;;22.00;95.60;;;;;;5053006;28;20180;-68
2023/05/05 15:08:40;;;;;;;1.43;1.43;;;21.90;95.90;;;;;;5052748;28;20190;-68
2023/05/05 15:11:05;;;;;;;1.00;1.00;;;21.80;96.10;;;;;;5009155;28;20699;-67
2023/05/05 15:13:31;;;;;;;1.40;1.30;;;21.80;95.90;;;;;;5012284;28;20464;-68
2023/05/05 15:15:57;;;;;;;1.13;1.03;;;21.70;95.90;;;;;;5016349;28;20188;-67
2023/05/05 15:18:24;;;;;;;1.50;1.40;;;21.70;95.90;;;;;;5017451;28;20170;-67
2023/05/05 15:20:49;;;;;;;1.40;1.30;;;21.60;95.40;;;;;;5017252;28;20161;-69
2023/05/05 15:23:15;;;;;;;1.17;1.07;;;21.60;95.30;;;;;;5016782;28;20770;-68
2023/05/05 15:25:41;;;;;;;1.13;1.13;;;21.50;94.90;;;;;;5015384;28;20210;-67
2023/05/05 15:28:07;;;;;;;1.03;1.00;;;21.50;95.00;;;;;;5016876;28;20389;-68
2023/05/05 15:30:32;;;;;;;1.00;1.00;;;21.40;95.00;;;;;;5016915;28;20186;-69
2023/05/05 15:32:58;;;;;;;1.07;1.07;;;21.40;94.80;;;;;;5016228;28;20211;-68
2023/05/05 15:35:24;;;;;;;1.60;1.50;;;21.30;95.00;;;;;;5016310;28;20206;-68
2023/05/05 15:37:50;;;;;;;1.50;1.40;;;21.30;95.10;;;;;;5016866;28;20249;-69
2023/05/05 15:40:16;;;;;;;1.63;1.53;;;21.20;95.20;;;;;;5016535;28;20485;-68
2023/05/05 15:42:42;;;;;;;1.20;1.20;;;21.20;95.50;;;;;;5016970;28;20528;-68
2023/05/05 15:45:11;;;;;;;1.90;1.37;;;21.20;95.90;;;;;;5016338;28;20545;-68
2023/05/05 15:47:37;;;;;;;1.83;1.67;;;21.10;96.00;;;;;;5016456;28;20174;-68
2023/05/05 15:50:03;;;;;;;1.47;1.37;;;21.10;96.10;;;;;;5016794;28;20411;-68
2023/05/05 15:52:29;;;;;;;1.10;1.10;;;21.10;96.10;;;;;;5015468;28;20406;-68
2023/05/05 15:54:55;;;;;;;1.10;1.10;;;21.00;95.80;;;;;;5016212;28;20430;-68
2023/05/05 15:57:20;;;;;;;1.33;1.23;;;21.00;95.80;;;;;;5016603;28;20656;-67
2023/05/05 15:59:49;;;;;;;1.60;1.50;;;21.00;96.00;;;;;;5016634;28;20175;-67
2023/05/05 16:02:14;;;;;;;1.40;1.30;;;20.90;95.90;;;;;;5015197;28;20556;-67
2023/05/05 16:04:40;;;;;;;1.53;1.43;;;20.70;96.20;;;;;;5016018;28;20437;-68
2023/05/05 16:07:06;;;;;;;1.40;1.30;;;20.50;97.10;;;;;;5016785;28;20174;-67
2023/05/05 16:09:31;;;;;;;1.57;1.47;;;20.40;98.90;;;;;;5057682;28;20318;-69
2023/05/05 16:11:57;;;;;;;1.90;1.50;;;20.20;99.90;;;;;;5077104;28;20193;-68
2023/05/05 16:14:22;;;;;;;1.60;1.50;;;20.00;99.90;;;;;;5076613;28;20698;-68
2023/05/05 16:16:48;;;;;;;1.70;1.60;;;19.80;99.90;;;;;;5076685;28;20173;-68
2023/05/05 16:19:14;;;;;;;2.00;1.83;;;19.70;99.90;;;;;;5058690;28;20177;-68
2023/05/05 16:21:39;;;;;;;1.50;1.40;;;19.50;99.90;;;;;;5094370;28;20271;-67
2023/05/05 16:24:05;;;;;;;1.50;1.40;;;19.30;99.90;;;;;;5096181;28;20248;-69
2023/05/05 16:26:31;;;;;;;2.20;2.07;;;19.20;99.90;;;;;;5095537;28;20534;-67
2023/05/05 16:28:56;;;;;;;2.50;2.40;;;19.00;99.90;;;;;;5095905;28;20400;-67
2023/05/05 16:31:22;;;;;;;2.17;1.97;;;18.80;99.90;;;;;;5095903;28;20174;-68
2023/05/05 16:33:47;;;;;;;1.30;1.20;;;18.70;99.90;;;;;;5096706;28;20709;-68
2023/05/05 16:36:13;;;;;;;1.57;1.47;;;18.60;99.90;;;;;;5097534;28;20212;-68
2023/05/05 16:38:39;;;;;;;1.80;1.70;;;18.50;99.90;;;;;;5097235;28;20166;-66
2023/05/05 16:41:07;;;;;;;2.33;2.17;;;18.40;99.90;;;;;;5095583;28;20167;-66
2023/05/05 16:43:35;;;;;;;1.63;1.60;;;18.30;99.90;;;;;;5093919;28;20418;-68
2023/05/05 16:46:02;;;;;;;3.00;2.80;;;18.20;99.90;;;;;;5095694;28;20398;-67
2023/05/05 16:48:28;;;;;;;2.07;1.97;;;18.20;99.90;;;;;;5095076;28;20515;-67
2023/05/05 16:50:56;;;;;;;4.93;4.13;;;18.10;99.90;;;;;;5095390;28;20551;-66
2023/05/05 16:53:22;;;;;;;3.50;3.20;;;18.00;99.90;;;;;;5094790;28;20457;-67
2023/05/05 16:55:52;;;;;;;2.93;2.73;;;17.90;99.90;;;;;;5095133;28;20538;-67
2023/05/05 16:58:21;;;;;;;2.97;2.80;;;17.80;99.90;;;;;;5095125;28;20895;-67
2023/05/05 17:00:48;;;;;;;2.20;2.10;;;17.70;99.90;;;;;;5095195;28;20849;-67